createdAt,value
2024-05-09T00:02:16.705Z,101509.08
2024-05-09T00:04:47.084Z,101506.95
2024-05-09T00:07:16.143Z,101505.34
2024-05-09T00:09:44.872Z,101499.09
2024-05-09T00:12:14.518Z,101498.63
2024-05-09T00:14:43.221Z,101497.59
2024-05-09T00:17:11.847Z,101496.17
2024-05-09T00:19:40.488Z,101495.30
2024-05-09T00:22:10.312Z,101494.85
2024-05-09T00:24:38.892Z,101495.52
2024-05-09T00:27:08.340Z,101494.48
2024-05-09T00:29:37.117Z,101491.58
2024-05-09T00:32:07.386Z,101491.40
2024-05-09T00:34:36.191Z,101493.86
2024-05-09T00:37:05.173Z,101496.58
2024-05-09T00:39:33.987Z,101492.13
2024-05-09T00:42:02.562Z,101493.23
2024-05-09T00:44:34.070Z,101498.89
2024-05-09T00:47:03.830Z,101496.11
2024-05-09T00:49:33.758Z,101496.68
2024-05-09T00:52:03.026Z,101495.60
2024-05-09T00:54:32.080Z,101497.27
2024-05-09T00:57:04.107Z,101486.80
2024-05-09T00:59:33.657Z,101486.42
2024-05-09T01:02:02.432Z,101487.19
2024-05-09T01:04:31.233Z,101483.99
2024-05-09T01:06:59.865Z,101490.52
2024-05-09T01:09:28.397Z,101485.96
2024-05-09T01:11:57.047Z,101487.86
2024-05-09T01:14:25.722Z,101482.98
2024-05-09T01:16:54.941Z,101483.75
2024-05-09T01:19:29.457Z,101484.30
2024-05-09T01:21:58.123Z,101478.41
2024-05-09T01:24:27.096Z,101478.11
2024-05-09T01:26:55.614Z,101481.20
2024-05-09T01:29:24.289Z,101483.45
2024-05-09T01:31:53.270Z,101487.20
2024-05-09T01:34:21.834Z,101487.10
2024-05-09T01:36:50.377Z,101489.92
2024-05-09T01:39:18.976Z,101488.96
2024-05-09T01:41:47.532Z,101487.96
2024-05-09T01:44:17.308Z,101486.27
2024-05-09T01:46:49.035Z,101485.58
2024-05-09T01:52:14.008Z,101479.41
2024-05-09T01:54:45.234Z,101478.95
2024-05-09T01:57:13.971Z,101473.21
2024-05-09T01:59:43.962Z,101475.02
2024-05-09T02:02:14.754Z,101477.08
2024-05-09T02:05:18.306Z,101480.42
2024-05-09T02:08:57.582Z,101482.09
2024-05-09T02:11:50.340Z,101482.95
2024-05-09T02:15:11.029Z,101480.87
2024-05-09T02:18:59.839Z,101476.67
2024-05-09T02:23:14.171Z,101476.19
2024-05-09T02:27:25.630Z,101481.09
2024-05-09T02:32:16.971Z,101496.82
2024-05-09T02:36:28.113Z,101498.07
2024-05-09T02:44:01.895Z,101494.46
2024-05-09T02:46:30.275Z,101492.44
2024-05-09T02:48:58.799Z,101493.73
2024-05-09T02:51:27.305Z,101491.84
2024-05-09T02:53:55.804Z,101493.16
2024-05-09T02:56:24.766Z,101493.00
2024-05-09T02:58:56.775Z,101492.79
2024-05-09T03:01:25.700Z,101490.81
2024-05-09T03:03:55.562Z,101495.91
2024-05-09T03:06:25.372Z,101496.63
2024-05-09T03:08:53.728Z,101503.89
2024-05-09T03:11:25.983Z,101501.84
2024-05-09T03:13:55.263Z,101500.79
2024-05-09T03:16:23.681Z,101499.79
2024-05-09T03:18:52.399Z,101498.31
2024-05-09T03:21:21.988Z,101501.23
2024-05-09T03:23:50.380Z,101500.91
2024-05-09T03:26:19.437Z,101501.53
2024-05-09T03:28:47.990Z,101509.52
2024-05-09T03:31:18.695Z,101511.71
2024-05-09T03:33:47.312Z,101516.07
2024-05-09T03:36:16.467Z,101517.44
2024-05-09T03:38:45.245Z,101519.29
2024-05-09T03:41:42.940Z,101516.83
2024-05-09T03:44:19.897Z,101518.45
2024-05-09T03:47:04.013Z,101515.78
2024-05-09T03:49:32.604Z,101513.29
2024-05-09T03:52:18.352Z,101515.13
2024-05-09T03:54:47.660Z,101516.13
2024-05-09T03:57:19.389Z,101514.96
2024-05-09T04:00:02.791Z,101520.69
2024-05-09T04:02:35.284Z,101524.92
2024-05-09T04:05:06.496Z,101526.40
2024-05-09T04:07:38.200Z,101529.27
2024-05-09T04:10:11.254Z,101531.75
2024-05-09T04:12:45.470Z,101537.71
2024-05-09T04:15:14.062Z,101533.02
2024-05-09T04:17:51.001Z,101537.77
2024-05-09T04:20:29.275Z,101538.01
2024-05-09T04:23:08.061Z,101536.02
2024-05-09T04:25:38.345Z,101540.35
2024-05-09T04:28:07.158Z,101542.05
2024-05-09T04:30:39.272Z,101541.66
2024-05-09T04:33:12.933Z,101543.06
2024-05-09T04:35:44.276Z,101537.33
2024-05-09T04:38:14.518Z,101539.08
2024-05-09T04:40:43.837Z,101537.52
2024-05-09T04:43:18.673Z,101540.05
2024-05-09T04:45:48.188Z,101543.01
2024-05-09T04:48:17.240Z,101545.05
2024-05-09T04:50:45.960Z,101548.06
2024-05-09T04:53:17.816Z,101548.30
2024-05-09T04:55:48.050Z,101553.00
2024-05-09T04:58:17.932Z,101554.45
2024-05-09T05:00:50.197Z,101549.96
2024-05-09T05:03:19.204Z,101550.81
2024-05-09T05:05:48.211Z,101546.70
2024-05-09T05:08:18.964Z,101549.23
2024-05-09T05:10:49.579Z,101550.55
2024-05-09T05:13:24.945Z,101553.77
2024-05-09T05:15:57.353Z,101554.85
2024-05-09T05:18:30.890Z,101556.67
2024-05-09T05:24:39.516Z,101565.25
2024-05-09T05:27:11.102Z,101566.14
2024-05-09T05:29:39.906Z,101564.55
2024-05-09T05:32:08.874Z,101560.39
2024-05-09T05:34:41.304Z,101561.39
2024-05-09T05:37:32.345Z,101557.92
2024-05-09T05:40:01.729Z,101559.58
2024-05-09T05:42:30.499Z,101559.94
2024-05-09T05:44:59.089Z,101557.17
2024-05-09T05:47:31.003Z,101555.38
2024-05-09T05:49:59.848Z,101556.77
2024-05-09T05:52:28.260Z,101556.05
2024-05-09T05:54:58.849Z,101559.31
2024-05-09T05:57:27.431Z,101560.66
2024-05-09T05:59:56.008Z,101562.94
2024-05-09T06:02:38.555Z,101567.52
2024-05-09T06:05:07.889Z,101567.92
2024-05-09T06:07:38.451Z,101569.36
2024-05-09T06:10:17.210Z,101568.13
2024-05-09T06:16:21.328Z,101568.52
2024-05-09T06:18:50.084Z,101563.19
2024-05-09T06:21:18.953Z,101566.64
2024-05-09T06:23:50.480Z,101567.83
2024-05-09T06:26:19.308Z,101565.84
2024-05-09T06:28:50.717Z,101568.88
2024-05-09T06:31:20.247Z,101572.05
2024-05-09T06:33:53.591Z,101569.46
2024-05-09T06:36:22.334Z,101571.11
2024-05-09T06:38:51.171Z,101571.36
2024-05-09T06:41:21.763Z,101571.22
2024-05-09T06:43:50.449Z,101572.54
2024-05-09T06:46:18.831Z,101568.52
2024-05-09T06:49:13.739Z,101568.73
2024-05-09T06:51:42.711Z,101574.13
2024-05-09T06:54:12.879Z,101572.20
2024-05-09T06:56:43.629Z,101574.42
2024-05-09T06:59:15.137Z,101575.10
2024-05-09T07:01:44.751Z,101574.10
2024-05-09T07:04:14.565Z,101574.38
2024-05-09T07:06:43.349Z,101576.05
2024-05-09T07:09:11.949Z,101572.40
2024-05-09T07:11:40.702Z,101573.02
2024-05-09T07:14:09.519Z,101572.70
2024-05-09T07:16:38.099Z,101572.72
2024-05-09T07:19:07.267Z,101573.39
2024-05-09T07:21:36.559Z,101574.20
2024-05-09T07:24:05.897Z,101574.53
2024-05-09T07:26:34.489Z,101574.77
2024-05-09T07:29:05.648Z,101576.63
2024-05-09T07:31:52.560Z,101577.73
2024-05-09T07:34:31.457Z,101577.92
2024-05-09T07:37:04.266Z,101577.60
2024-05-09T07:39:32.571Z,101579.50
2024-05-09T07:42:01.105Z,101578.55
2024-05-09T07:44:30.551Z,101577.35
2024-05-09T07:54:37.313Z,101573.05
2024-05-09T07:57:06.572Z,101572.80
2024-05-09T07:59:38.761Z,101572.76
2024-05-09T08:02:07.627Z,101575.14
2024-05-09T08:04:36.830Z,101576.69
2024-05-09T08:07:05.602Z,101577.59
2024-05-09T08:09:38.693Z,101578.05
2024-05-09T08:12:09.363Z,101574.20
2024-05-09T08:14:39.295Z,101572.53
2024-05-09T08:17:07.967Z,101571.30
2024-05-09T08:19:37.654Z,101572.52
2024-05-09T08:22:07.134Z,101574.93
2024-05-09T08:24:47.690Z,101569.30
2024-05-09T08:27:17.056Z,101569.87
2024-05-09T08:29:46.186Z,101571.68
2024-05-09T08:32:14.723Z,101570.93
2024-05-09T08:34:45.822Z,101572.62
2024-05-09T08:37:21.443Z,101569.30
2024-05-09T08:39:53.362Z,101563.00
2024-05-09T08:42:57.002Z,101559.92
2024-05-09T08:45:53.252Z,101562.92
2024-05-09T08:48:23.630Z,101561.95
2024-05-09T08:54:03.422Z,101558.03
2024-05-09T08:56:39.409Z,101559.93
2024-05-09T08:59:26.128Z,101558.32
2024-05-09T09:01:55.494Z,101558.98
2024-05-09T09:04:32.391Z,101558.88
2024-05-09T09:07:03.380Z,101555.91
2024-05-09T09:09:35.000Z,101554.05
2024-05-09T09:12:08.568Z,101552.87
2024-05-09T09:15:30.903Z,101550.17
2024-05-09T09:18:03.062Z,101552.80
2024-05-09T09:20:36.457Z,101557.24
2024-05-09T09:23:11.243Z,101555.20
2024-05-09T09:25:58.040Z,101556.78
2024-05-09T09:28:38.259Z,101553.34
2024-05-09T09:31:09.067Z,101549.01
2024-05-09T09:33:50.139Z,101547.69
2024-05-09T09:36:40.778Z,101549.38
2024-05-09T09:42:36.888Z,101541.39
2024-05-09T09:45:16.170Z,101538.35
2024-05-09T09:47:47.653Z,101539.21
2024-05-09T09:50:31.728Z,101540.20
2024-05-09T09:53:07.221Z,101543.33
2024-05-09T09:55:37.635Z,101543.64
2024-05-09T09:58:09.754Z,101544.67
2024-05-09T10:00:46.669Z,101541.77
2024-05-09T10:03:15.586Z,101538.88
2024-05-09T10:06:20.914Z,101538.88
2024-05-09T10:08:52.551Z,101526.67
2024-05-09T10:11:22.111Z,101526.41
2024-05-09T10:14:20.113Z,101522.33
2024-05-09T10:16:50.482Z,101522.10
2024-05-09T10:19:28.538Z,101523.14
2024-05-09T10:22:04.342Z,101515.23
2024-05-09T10:24:52.730Z,101512.88
2024-05-09T10:27:31.164Z,101507.18
2024-05-09T10:30:09.099Z,101504.73
2024-05-09T10:32:46.957Z,101507.14
2024-05-09T10:35:19.601Z,101505.55
2024-05-09T10:37:52.939Z,101507.21
2024-05-09T10:40:49.478Z,101507.54
2024-05-09T10:43:19.934Z,101510.52
2024-05-09T10:45:49.369Z,101509.64
2024-05-09T10:48:38.168Z,101510.39
2024-05-09T10:51:27.191Z,101507.67
2024-05-09T10:53:57.553Z,101503.89
2024-05-09T10:56:26.438Z,101500.69
2024-05-09T10:58:55.139Z,101494.92
2024-05-09T11:01:24.022Z,101494.76
2024-05-09T11:03:52.931Z,101493.39
2024-05-09T11:06:21.744Z,101487.08
2024-05-09T11:08:51.450Z,101487.70
2024-05-09T11:11:20.725Z,101484.41
2024-05-09T11:13:49.339Z,101487.15
2024-05-09T11:16:21.068Z,101485.17
2024-05-09T11:18:58.945Z,101487.61
2024-05-09T11:21:28.114Z,101485.93
2024-05-09T11:23:57.548Z,101483.61
2024-05-09T11:26:29.429Z,101480.02
2024-05-09T11:29:06.790Z,101477.50
2024-05-09T11:31:47.787Z,101479.98
2024-05-09T11:34:19.334Z,101477.19
2024-05-09T11:36:50.415Z,101474.45
2024-05-09T11:39:19.043Z,101473.27
2024-05-09T11:41:47.538Z,101473.88
2024-05-09T11:44:18.333Z,101469.41
2024-05-09T11:46:47.086Z,101465.48
2024-05-09T11:49:15.757Z,101460.55
2024-05-09T11:51:44.332Z,101460.88
2024-05-09T11:54:41.179Z,101460.64
2024-05-09T11:57:34.908Z,101460.89
2024-05-09T12:00:18.250Z,101458.89
2024-05-09T12:02:56.065Z,101460.78
2024-05-09T12:05:27.844Z,101455.85
2024-05-09T12:08:14.192Z,101451.47
2024-05-09T12:10:54.675Z,101452.73
2024-05-09T12:13:46.006Z,101449.40
2024-05-09T12:16:14.798Z,101446.15
2024-05-09T12:18:43.746Z,101438.55
2024-05-09T12:21:16.995Z,101434.84
2024-05-09T12:24:11.325Z,101436.36
2024-05-09T12:27:13.530Z,101434.34
2024-05-09T12:30:37.690Z,101433.71
2024-05-09T12:33:20.406Z,101434.33
2024-05-09T12:35:50.954Z,101432.23
2024-05-09T12:38:19.951Z,101429.34
2024-05-09T12:40:54.971Z,101422.60
2024-05-09T12:43:56.414Z,101417.95
2024-05-09T12:46:27.988Z,101419.21
2024-05-09T12:48:58.462Z,101414.91
2024-05-09T12:51:50.447Z,101411.30
2024-05-09T12:54:19.224Z,101408.13
2024-05-09T12:56:47.878Z,101410.95
2024-05-09T12:59:16.410Z,101410.66
2024-05-09T13:02:06.005Z,101408.91
2024-05-09T13:04:52.453Z,101407.19
2024-05-09T13:07:21.060Z,101403.45
2024-05-09T13:09:49.690Z,101399.33
2024-05-09T13:12:26.702Z,101394.05
2024-05-09T13:14:55.382Z,101393.34
2024-05-09T13:17:25.040Z,101390.46
2024-05-09T13:19:54.098Z,101391.38
2024-05-09T13:22:40.512Z,101385.02
2024-05-09T13:25:09.094Z,101387.95
2024-05-09T13:28:11.339Z,101385.54
2024-05-09T13:30:48.482Z,101381.79
2024-05-09T13:33:19.548Z,101379.55
2024-05-09T13:35:50.694Z,101371.64
2024-05-09T13:38:21.340Z,101370.79
2024-05-09T13:40:53.373Z,101371.17
2024-05-09T13:43:32.463Z,101366.88
2024-05-09T13:46:02.674Z,101366.05
2024-05-09T13:48:31.410Z,101363.16
2024-05-09T13:51:02.825Z,101362.92
2024-05-09T13:53:31.501Z,101363.93
2024-05-09T13:56:27.340Z,101365.41
2024-05-09T13:59:22.017Z,101359.61
2024-05-09T14:01:55.368Z,101352.92
2024-05-09T14:04:24.474Z,101348.00
2024-05-09T14:06:53.728Z,101348.67
2024-05-09T14:09:22.336Z,101346.98
2024-05-09T14:11:50.929Z,101346.11
2024-05-09T14:14:19.555Z,101341.72
2024-05-09T14:16:48.307Z,101342.96
2024-05-09T14:19:17.437Z,101341.77
2024-05-09T14:21:46.307Z,101337.73
2024-05-09T14:24:14.911Z,101336.95
2024-05-09T14:26:44.574Z,101339.79
2024-05-09T14:29:13.145Z,101341.63
2024-05-09T14:31:41.688Z,101336.58
2024-05-09T14:34:10.650Z,101338.15
2024-05-09T14:36:39.526Z,101339.87
2024-05-09T14:39:08.329Z,101337.95
2024-05-09T14:41:39.065Z,101338.56
2024-05-09T14:44:07.597Z,101337.23
2024-05-09T14:46:36.239Z,101336.50
2024-05-09T14:49:06.055Z,101332.63
2024-05-09T14:51:36.560Z,101333.39
2024-05-09T14:54:16.725Z,101332.24
2024-05-09T14:56:45.320Z,101327.79
2024-05-09T14:59:13.764Z,101330.55
2024-05-09T15:01:42.864Z,101328.04
2024-05-09T15:04:11.787Z,101321.65
2024-05-09T15:06:43.512Z,101322.66
2024-05-09T15:09:11.984Z,101323.59
2024-05-09T15:11:40.797Z,101325.17
2024-05-09T15:14:09.503Z,101324.37
2024-05-09T15:16:38.152Z,101320.88
2024-05-09T15:19:09.550Z,101321.71
2024-05-09T15:21:38.709Z,101318.40
2024-05-09T15:24:07.499Z,101318.69
2024-05-09T15:26:37.102Z,101316.73
2024-05-09T15:29:05.633Z,101316.27
2024-05-09T15:31:34.322Z,101313.43
2024-05-09T15:34:03.249Z,101312.59
2024-05-09T15:36:32.660Z,101310.73
2024-05-09T15:39:02.918Z,101313.46
2024-05-09T15:41:34.753Z,101313.42
2024-05-09T15:44:03.479Z,101314.16
2024-05-09T15:47:15.390Z,101311.33
2024-05-09T15:49:56.819Z,101310.69
2024-05-09T15:53:00.130Z,101308.85
2024-05-09T15:55:58.093Z,101309.63
2024-05-09T15:58:33.731Z,101303.45
2024-05-09T16:01:02.433Z,101307.41
2024-05-09T16:03:33.865Z,101312.80
2024-05-09T16:06:20.700Z,101316.70
2024-05-09T16:08:56.945Z,101312.79
2024-05-09T16:11:56.699Z,101311.27
2024-05-09T16:14:46.483Z,101306.09
2024-05-09T16:17:15.558Z,101308.73
2024-05-09T16:20:29.036Z,101308.70
2024-05-09T16:23:42.214Z,101309.38
2024-05-09T16:30:24.693Z,101310.74
2024-05-09T16:33:26.703Z,101314.27
2024-05-09T16:35:59.904Z,101311.70
2024-05-09T16:38:49.764Z,101314.13
2024-05-09T16:41:19.640Z,101314.63
2024-05-09T16:43:48.612Z,101320.25
2024-05-09T16:46:20.809Z,101317.66
2024-05-09T16:48:52.630Z,101320.80
2024-05-09T16:51:26.428Z,101320.02
2024-05-09T16:53:55.016Z,101323.71
2024-05-09T16:56:24.779Z,101323.77
2024-05-09T16:58:56.053Z,101328.13
2024-05-09T17:01:24.845Z,101328.49
2024-05-09T17:04:30.466Z,101328.11
2024-05-09T17:07:29.842Z,101333.21
2024-05-09T17:10:26.766Z,101336.73
2024-05-09T17:13:08.073Z,101340.81
2024-05-09T17:15:37.764Z,101339.89
2024-05-09T17:18:08.343Z,101337.91
2024-05-09T17:20:37.765Z,101339.88
2024-05-09T17:23:13.464Z,101341.60
2024-05-09T17:25:51.015Z,101342.52
2024-05-09T17:28:19.783Z,101345.67
2024-05-09T17:30:51.277Z,101349.69
2024-05-09T17:33:20.158Z,101347.14
2024-05-09T17:35:51.516Z,101347.95
2024-05-09T17:38:22.762Z,101349.86
2024-05-09T17:40:54.805Z,101351.86
2024-05-09T17:43:23.995Z,101354.16
2024-05-09T17:45:52.775Z,101354.75
2024-05-09T17:48:22.750Z,101357.29
2024-05-09T17:51:00.131Z,101357.81
2024-05-09T17:53:32.618Z,101359.41
2024-05-09T17:56:02.201Z,101361.00
2024-05-09T17:58:31.050Z,101360.88
2024-05-09T18:00:59.886Z,101364.54
2024-05-09T18:03:28.907Z,101367.64
2024-05-09T18:05:58.256Z,101368.68
2024-05-09T18:08:27.152Z,101369.58
2024-05-09T18:10:56.150Z,101372.06
2024-05-09T18:13:26.162Z,101376.39
2024-05-09T18:15:54.950Z,101375.81
2024-05-09T18:18:23.611Z,101378.63
2024-05-09T18:20:52.616Z,101379.38
2024-05-09T18:23:21.322Z,101383.02
2024-05-09T18:25:55.240Z,101385.00
2024-05-09T18:28:24.383Z,101391.41
2024-05-09T18:31:18.277Z,101395.49
2024-05-09T18:33:47.125Z,101403.81
2024-05-09T18:36:15.985Z,101406.26
2024-05-09T18:38:44.751Z,101410.67
2024-05-09T18:41:13.963Z,101412.91
2024-05-09T18:43:45.404Z,101414.30
2024-05-09T18:46:17.231Z,101415.72
2024-05-09T18:48:46.434Z,101415.29
2024-05-09T18:51:15.100Z,101415.14
2024-05-09T18:54:09.411Z,101419.77
2024-05-09T18:56:37.982Z,101424.23
2024-05-09T18:59:06.574Z,101424.08
2024-05-09T19:01:40.689Z,101429.34
2024-05-09T19:04:09.616Z,101434.69
2024-05-09T19:06:40.608Z,101435.19
2024-05-09T19:09:09.116Z,101436.67
2024-05-09T19:11:40.577Z,101440.63
2024-05-09T19:14:09.425Z,101447.21
2024-05-09T19:16:38.098Z,101447.79
2024-05-09T19:19:10.149Z,101452.92
2024-05-09T19:21:41.122Z,101456.77
2024-05-09T19:24:36.363Z,101458.33
2024-05-09T19:27:05.388Z,101458.27
2024-05-09T19:29:33.882Z,101466.08
2024-05-09T19:32:02.393Z,101470.44
2024-05-09T19:34:30.918Z,101468.38
2024-05-09T19:37:01.414Z,101472.77
2024-05-09T19:40:01.608Z,101471.36
2024-05-09T19:42:32.540Z,101469.89
2024-05-09T19:45:01.194Z,101475.73
2024-05-09T19:47:29.767Z,101473.29
2024-05-09T19:49:58.300Z,101472.71
2024-05-09T19:52:26.927Z,101473.95
2024-05-09T19:54:55.363Z,101478.84
2024-05-09T19:57:24.865Z,101482.63
2024-05-09T19:59:53.474Z,101486.45
2024-05-09T20:02:23.832Z,101482.09
2024-05-09T20:04:52.508Z,101478.87
2024-05-09T20:07:21.145Z,101481.73
2024-05-09T20:09:49.747Z,101480.25
2024-05-09T20:12:18.300Z,101482.68
2024-05-09T20:14:46.958Z,101482.00
2024-05-09T20:17:15.350Z,101484.45
2024-05-09T20:19:44.182Z,101487.17
2024-05-09T20:22:13.033Z,101489.93
2024-05-09T20:24:41.722Z,101492.67
2024-05-09T20:27:12.216Z,101494.72
2024-05-09T20:29:40.650Z,101496.64
2024-05-09T20:32:09.690Z,101498.27
2024-05-09T20:34:38.822Z,101498.36
2024-05-09T20:37:07.941Z,101493.60
2024-05-09T20:39:36.599Z,101494.91
2024-05-09T20:42:05.297Z,101496.42
2024-05-09T20:44:34.026Z,101494.77
2024-05-09T20:48:16.621Z,101498.08
2024-05-09T20:54:00.970Z,101502.03
2024-05-09T20:57:24.400Z,101497.41
2024-05-09T20:59:55.892Z,101499.13
2024-05-09T21:02:24.633Z,101495.30
2024-05-09T21:04:55.860Z,101497.45
2024-05-09T21:07:30.817Z,101497.73
2024-05-09T21:09:59.982Z,101494.11
2024-05-09T21:12:38.205Z,101496.07
2024-05-09T21:15:14.318Z,101500.85
2024-05-09T21:17:42.999Z,101500.00
2024-05-09T21:20:17.343Z,101499.64
2024-05-09T21:22:49.562Z,101499.11
2024-05-09T21:25:18.320Z,101499.95
2024-05-09T21:27:49.609Z,101496.27
2024-05-09T21:30:41.070Z,101500.41
2024-05-09T21:33:13.754Z,101505.98
2024-05-09T21:36:35.267Z,101508.21
2024-05-09T21:39:25.256Z,101510.69
2024-05-09T21:42:01.764Z,101510.92
2024-05-09T21:44:32.012Z,101511.20
2024-05-09T21:47:10.345Z,101511.36
2024-05-09T21:49:38.959Z,101514.45
2024-05-09T21:52:53.623Z,101516.35
2024-05-09T21:55:23.700Z,101515.15
2024-05-09T21:57:52.368Z,101518.11
2024-05-09T22:00:32.101Z,101516.01
2024-05-09T22:03:54.622Z,101521.80
2024-05-09T22:06:23.225Z,101517.96
2024-05-09T22:09:45.328Z,101521.40
2024-05-09T22:12:17.628Z,101525.03
2024-05-09T22:14:46.110Z,101518.10
2024-05-09T22:17:15.541Z,101520.77
2024-05-09T22:19:49.717Z,101516.35
2024-05-09T22:22:32.070Z,101521.35
2024-05-09T22:25:00.823Z,101520.58
2024-05-09T22:27:30.725Z,101520.50
2024-05-09T22:30:09.167Z,101523.89
2024-05-09T22:32:40.322Z,101524.13
2024-05-09T22:35:10.542Z,101527.19
2024-05-09T22:37:38.914Z,101526.99
2024-05-09T22:40:15.115Z,101526.89
2024-05-09T22:42:48.975Z,101522.88
2024-05-09T22:45:22.107Z,101522.14
2024-05-09T22:47:50.668Z,101517.77
2024-05-09T22:50:26.680Z,101526.54
2024-05-09T22:53:01.538Z,101525.17
2024-05-09T22:55:30.501Z,101525.25
2024-05-09T22:57:59.325Z,101526.67
2024-05-09T23:00:31.732Z,101526.23
2024-05-09T23:03:01.948Z,101527.82
2024-05-09T23:05:32.683Z,101527.52
2024-05-09T23:08:02.568Z,101529.06
2024-05-09T23:10:35.884Z,101526.23
2024-05-09T23:13:09.569Z,101528.18
2024-05-09T23:15:41.439Z,101526.39
2024-05-09T23:18:10.487Z,101532.73
2024-05-09T23:21:01.053Z,101529.40
2024-05-09T23:23:36.242Z,101531.23
2024-05-09T23:26:05.262Z,101531.08
2024-05-09T23:28:34.115Z,101531.23
2024-05-09T23:31:05.870Z,101527.32
2024-05-09T23:36:31.613Z,101527.88
2024-05-09T23:39:00.751Z,101528.12
2024-05-09T23:41:29.559Z,101529.23
2024-05-09T23:43:58.053Z,101531.03
2024-05-09T23:46:26.545Z,101533.23
2024-05-09T23:49:32.079Z,101532.72
2024-05-09T23:52:00.614Z,101530.08
2024-05-09T23:54:29.158Z,101532.45
2024-05-09T23:57:02.376Z,101533.35
2024-05-09T23:59:35.002Z,101528.40
